KSLH

Details ICAO KSLH
Name CHEBOYGAN CO
Region United States
Timezone America/Detroit (UTC-4.0)
Plans Departing 1
Arriving 6
Stats Elevation 641 ft / 195 m (AMSL)
Location 45.653343° -84.519154°
Runways 2
Magnetic Variation 7.180° W
Sunrise 2018-05-20 10:03:02 UTC / 2018-05-20 06:03:02 Local
Sunset 2018-05-21 01:09:02 UTC / 2018-05-20 21:09:02 Local
Advertisement - Login to hide

Runways

ID Width Length Bearing (true) Bearing (mag) Surface Threshold Offset Overrun Length
09 75 ft / 23 m 3,991 ft / 1,216 m 89.91° 97.09° Asphalt 0 ft / 0 m 0 ft / 0 m
16 75 ft / 23 m 1,600 ft / 488 m 163.86° 171.04° Grass 0 ft / 0 m 0 ft / 0 m
27 75 ft / 23 m 3,991 ft / 1,216 m 269.92° 277.10° Asphalt 0 ft / 0 m 0 ft / 0 m
34 75 ft / 23 m 1,600 ft / 488 m 343.86° 351.04° Grass 500 ft / 152 m 0 ft / 0 m

Map

Weather


0- 5 10 15 20 25 30 35+ Temperature / ° C

Clouds and Precipitation
Forecast for 2018-05-20 18:00 UTC. Updated 5 hours ago

Ground ~20,000 ft ~40,000 ft Winds

METAR

KSLH 202155Z AUTO 30006KT 10SM CLR 16/00 A3019 RMK AO2 T01590000

TAF

Not found

Frequencies

Recorded 118.17 MHz AWOS 3
Unicom 122.80 MHz CTAF/UNICOM
Warning: Do not use this data for real-world aviation or navigation. No guarantee of current accuracy is given.